sensor_id;sensor_type;location;lat;lon;timestamp;temperature;humidity
14741;DHT22;7462;53.530;9.414;2023-05-10T00:00:52;16.10;95.70
14741;DHT22;7462;53.530;9.414;2023-05-10T00:03:20;16.00;95.90
14741;DHT22;7462;53.530;9.414;2023-05-10T00:05:49;16.00;96.10
14741;DHT22;7462;53.530;9.414;2023-05-10T00:08:17;15.90;96.10
14741;DHT22;7462;53.530;9.414;2023-05-10T00:10:45;15.90;96.20
14741;DHT22;7462;53.530;9.414;2023-05-10T00:13:13;15.90;96.20
14741;DHT22;7462;53.530;9.414;2023-05-10T00:15:43;16.00;96.90
14741;DHT22;7462;53.530;9.414;2023-05-10T00:18:11;15.90;96.50
14741;DHT22;7462;53.530;9.414;2023-05-10T00:20:39;15.80;96.70
14741;DHT22;7462;53.530;9.414;2023-05-10T00:23:07;15.80;97.50
14741;DHT22;7462;53.530;9.414;2023-05-10T00:25:35;15.80;97.00
14741;DHT22;7462;53.530;9.414;2023-05-10T00:28:03;15.70;97.20
14741;DHT22;7462;53.530;9.414;2023-05-10T00:30:31;15.70;97.50
14741;DHT22;7462;53.530;9.414;2023-05-10T00:33:02;15.60;97.60
14741;DHT22;7462;53.530;9.414;2023-05-10T00:35:30;15.70;98.40
14741;DHT22;7462;53.530;9.414;2023-05-10T00:37:58;15.70;98.40
14741;DHT22;7462;53.530;9.414;2023-05-10T00:40:27;15.60;98.30
14741;DHT22;7462;53.530;9.414;2023-05-10T00:42:58;15.70;99.90
14741;DHT22;7462;53.530;9.414;2023-05-10T00:45:28;15.60;98.40
14741;DHT22;7462;53.530;9.414;2023-05-10T00:47:56;15.50;98.70
14741;DHT22;7462;53.530;9.414;2023-05-10T00:50:26;15.50;99.10
14741;DHT22;7462;53.530;9.414;2023-05-10T00:52:54;15.40;99.10
14741;DHT22;7462;53.530;9.414;2023-05-10T00:55:23;15.40;99.90
14741;DHT22;7462;53.530;9.414;2023-05-10T00:57:52;15.30;99.40
14741;DHT22;7462;53.530;9.414;2023-05-10T01:00:20;15.30;99.50
14741;DHT22;7462;53.530;9.414;2023-05-10T01:02:49;15.30;99.90
14741;DHT22;7462;53.530;9.414;2023-05-10T01:05:17;15.20;99.90
14741;DHT22;7462;53.530;9.414;2023-05-10T01:07:47;15.20;99.90
14741;DHT22;7462;53.530;9.414;2023-05-10T01:10:15;15.20;99.90
14741;DHT22;7462;53.530;9.414;2023-05-10T01:12:46;15.10;99.90
14741;DHT22;7462;53.530;9.414;2023-05-10T01:15:15;15.00;99.90
14741;DHT22;7462;53.530;9.414;2023-05-10T01:17:46;15.00;99.90
14741;DHT22;7462;53.530;9.414;2023-05-10T01:20:15;15.10;99.90
14741;DHT22;7462;53.530;9.414;2023-05-10T01:23:10;15.10;99.90
14741;DHT22;7462;53.530;9.414;2023-05-10T01:32:08;15.10;99.90
14741;DHT22;7462;53.530;9.414;2023-05-10T01:34:50;15.10;99.90
14741;DHT22;7462;53.530;9.414;2023-05-10T01:37:25;15.00;99.90
14741;DHT22;7462;53.530;9.414;2023-05-10T01:40:01;15.00;99.90
14741;DHT22;7462;53.530;9.414;2023-05-10T01:42:38;15.10;99.90
14741;DHT22;7462;53.530;9.414;2023-05-10T01:45:14;14.90;99.90
14741;DHT22;7462;53.530;9.414;2023-05-10T01:47:50;14.90;99.90
14741;DHT22;7462;53.530;9.414;2023-05-10T01:50:26;14.90;99.90
14741;DHT22;7462;53.530;9.414;2023-05-10T01:52:57;14.90;99.90
14741;DHT22;7462;53.530;9.414;2023-05-10T01:55:29;14.90;99.90
14741;DHT22;7462;53.530;9.414;2023-05-10T01:58:02;14.80;99.90
14741;DHT22;7462;53.530;9.414;2023-05-10T02:00:31;14.90;99.90
14741;DHT22;7462;53.530;9.414;2023-05-10T02:03:05;14.90;99.90
14741;DHT22;7462;53.530;9.414;2023-05-10T02:05:34;14.90;99.90
14741;DHT22;7462;53.530;9.414;2023-05-10T02:08:05;14.80;99.90
14741;DHT22;7462;53.530;9.414;2023-05-10T02:10:36;14.80;99.90
14741;DHT22;7462;53.530;9.414;2023-05-10T02:13:06;14.80;99.90
14741;DHT22;7462;53.530;9.414;2023-05-10T02:15:35;14.70;99.90
14741;DHT22;7462;53.530;9.414;2023-05-10T02:18:06;14.70;99.90
14741;DHT22;7462;53.530;9.414;2023-05-10T02:20:35;14.60;99.90
14741;DHT22;7462;53.530;9.414;2023-05-10T02:23:04;14.70;99.90
14741;DHT22;7462;53.530;9.414;2023-05-10T02:25:33;14.60;99.90
14741;DHT22;7462;53.530;9.414;2023-05-10T02:28:03;14.50;99.90
14741;DHT22;7462;53.530;9.414;2023-05-10T02:30:32;14.50;99.90
14741;DHT22;7462;53.530;9.414;2023-05-10T02:33:01;14.40;99.90
14741;DHT22;7462;53.530;9.414;2023-05-10T02:35:34;14.40;99.90
14741;DHT22;7462;53.530;9.414;2023-05-10T02:38:02;14.30;99.90
14741;DHT22;7462;53.530;9.414;2023-05-10T02:40:32;14.20;99.90
14741;DHT22;7462;53.530;9.414;2023-05-10T02:43:02;14.30;99.90
14741;DHT22;7462;53.530;9.414;2023-05-10T02:45:32;14.30;99.90
14741;DHT22;7462;53.530;9.414;2023-05-10T02:48:03;14.20;99.90
14741;DHT22;7462;53.530;9.414;2023-05-10T02:50:33;14.20;99.90
14741;DHT22;7462;53.530;9.414;2023-05-10T02:53:10;14.20;99.90
14741;DHT22;7462;53.530;9.414;2023-05-10T02:55:40;14.10;99.90
14741;DHT22;7462;53.530;9.414;2023-05-10T02:58:09;14.10;99.90
14741;DHT22;7462;53.530;9.414;2023-05-10T03:00:37;14.00;99.90
14741;DHT22;7462;53.530;9.414;2023-05-10T03:03:06;14.00;99.90
14741;DHT22;7462;53.530;9.414;2023-05-10T03:05:36;14.00;99.90
14741;DHT22;7462;53.530;9.414;2023-05-10T03:08:04;14.00;99.90
14741;DHT22;7462;53.530;9.414;2023-05-10T03:10:38;14.00;99.90
14741;DHT22;7462;53.530;9.414;2023-05-10T03:13:15;14.00;99.90
14741;DHT22;7462;53.530;9.414;2023-05-10T03:15:51;13.90;99.90
14741;DHT22;7462;53.530;9.414;2023-05-10T03:18:37;13.90;99.90
14741;DHT22;7462;53.530;9.414;2023-05-10T03:21:11;13.80;99.90
14741;DHT22;7462;53.530;9.414;2023-05-10T03:23:43;13.80;99.90
14741;DHT22;7462;53.530;9.414;2023-05-10T03:26:17;13.80;99.90
14741;DHT22;7462;53.530;9.414;2023-05-10T03:28:48;13.80;99.90
14741;DHT22;7462;53.530;9.414;2023-05-10T03:31:17;13.80;99.90
14741;DHT22;7462;53.530;9.414;2023-05-10T03:33:46;13.70;99.90
14741;DHT22;7462;53.530;9.414;2023-05-10T03:36:20;13.70;99.90
14741;DHT22;7462;53.530;9.414;2023-05-10T03:38:48;13.70;99.90
14741;DHT22;7462;53.530;9.414;2023-05-10T03:41:17;13.60;99.90
14741;DHT22;7462;53.530;9.414;2023-05-10T03:43:45;13.60;99.90
14741;DHT22;7462;53.530;9.414;2023-05-10T03:46:13;13.60;99.90
14741;DHT22;7462;53.530;9.414;2023-05-10T03:48:41;13.60;99.90
14741;DHT22;7462;53.530;9.414;2023-05-10T03:51:09;13.60;99.90
14741;DHT22;7462;53.530;9.414;2023-05-10T03:53:40;13.60;99.90
14741;DHT22;7462;53.530;9.414;2023-05-10T03:56:08;13.50;99.90
14741;DHT22;7462;53.530;9.414;2023-05-10T03:58:36;13.50;99.90
14741;DHT22;7462;53.530;9.414;2023-05-10T04:01:04;13.50;99.90
14741;DHT22;7462;53.530;9.414;2023-05-10T04:03:32;13.50;99.90
14741;DHT22;7462;53.530;9.414;2023-05-10T04:06:02;13.60;99.90
14741;DHT22;7462;53.530;9.414;2023-05-10T04:08:32;13.60;99.90
14741;DHT22;7462;53.530;9.414;2023-05-10T04:11:08;13.60;99.90
14741;DHT22;7462;53.530;9.414;2023-05-10T04:13:37;13.60;99.90
14741;DHT22;7462;53.530;9.414;2023-05-10T04:16:05;13.60;99.90
14741;DHT22;7462;53.530;9.414;2023-05-10T04:18:33;13.50;99.90
14741;DHT22;7462;53.530;9.414;2023-05-10T04:21:01;13.60;99.90
14741;DHT22;7462;53.530;9.414;2023-05-10T04:23:29;13.60;99.90
14741;DHT22;7462;53.530;9.414;2023-05-10T04:26:00;13.60;99.90
14741;DHT22;7462;53.530;9.414;2023-05-10T04:28:30;13.60;99.90
14741;DHT22;7462;53.530;9.414;2023-05-10T04:31:02;13.50;99.90
14741;DHT22;7462;53.530;9.414;2023-05-10T04:33:30;13.50;99.90
14741;DHT22;7462;53.530;9.414;2023-05-10T04:36:00;13.50;99.90
14741;DHT22;7462;53.530;9.414;2023-05-10T04:38:29;13.60;99.90
14741;DHT22;7462;53.530;9.414;2023-05-10T04:41:04;13.70;99.90
14741;DHT22;7462;53.530;9.414;2023-05-10T04:43:34;13.80;99.90
14741;DHT22;7462;53.530;9.414;2023-05-10T04:46:03;13.90;99.90
14741;DHT22;7462;53.530;9.414;2023-05-10T04:48:31;13.80;99.90
14741;DHT22;7462;53.530;9.414;2023-05-10T04:50:59;13.90;99.90
14741;DHT22;7462;53.530;9.414;2023-05-10T04:53:27;13.90;99.90
14741;DHT22;7462;53.530;9.414;2023-05-10T04:55:55;14.10;99.90
14741;DHT22;7462;53.530;9.414;2023-05-10T04:58:24;14.00;99.90
14741;DHT22;7462;53.530;9.414;2023-05-10T05:00:54;14.10;99.90
14741;DHT22;7462;53.530;9.414;2023-05-10T05:03:22;14.10;99.90
14741;DHT22;7462;53.530;9.414;2023-05-10T05:05:50;14.10;99.90
14741;DHT22;7462;53.530;9.414;2023-05-10T05:08:18;14.20;99.90
14741;DHT22;7462;53.530;9.414;2023-05-10T05:10:48;14.30;99.90
14741;DHT22;7462;53.530;9.414;2023-05-10T05:13:17;14.20;99.90
14741;DHT22;7462;53.530;9.414;2023-05-10T05:15:46;14.40;99.90
14741;DHT22;7462;53.530;9.414;2023-05-10T05:18:15;14.60;99.90
14741;DHT22;7462;53.530;9.414;2023-05-10T05:20:43;14.70;99.90
14741;DHT22;7462;53.530;9.414;2023-05-10T05:23:11;14.80;99.90
14741;DHT22;7462;53.530;9.414;2023-05-10T05:25:39;14.90;99.90
14741;DHT22;7462;53.530;9.414;2023-05-10T05:28:08;14.90;99.90
14741;DHT22;7462;53.530;9.414;2023-05-10T05:30:36;15.00;99.90
14741;DHT22;7462;53.530;9.414;2023-05-10T05:33:04;15.20;99.90
14741;DHT22;7462;53.530;9.414;2023-05-10T05:35:34;15.30;99.90
14741;DHT22;7462;53.530;9.414;2023-05-10T05:38:02;15.50;99.90
14741;DHT22;7462;53.530;9.414;2023-05-10T05:40:30;15.40;99.90
14741;DHT22;7462;53.530;9.414;2023-05-10T05:42:58;15.30;99.90
14741;DHT22;7462;53.530;9.414;2023-05-10T05:45:27;15.30;99.90
14741;DHT22;7462;53.530;9.414;2023-05-10T05:47:55;15.30;99.90
14741;DHT22;7462;53.530;9.414;2023-05-10T05:50:24;15.30;99.90
14741;DHT22;7462;53.530;9.414;2023-05-10T05:52:53;15.50;99.90
14741;DHT22;7462;53.530;9.414;2023-05-10T05:55:22;15.60;99.90
14741;DHT22;7462;53.530;9.414;2023-05-10T05:57:50;15.70;99.90
14741;DHT22;7462;53.530;9.414;2023-05-10T06:00:18;15.70;99.90
14741;DHT22;7462;53.530;9.414;2023-05-10T06:02:48;15.70;99.90
14741;DHT22;7462;53.530;9.414;2023-05-10T06:05:16;15.80;99.90
14741;DHT22;7462;53.530;9.414;2023-05-10T06:07:44;15.70;99.90
14741;DHT22;7462;53.530;9.414;2023-05-10T06:10:14;15.70;99.90
14741;DHT22;7462;53.530;9.414;2023-05-10T06:12:42;15.60;99.90
14741;DHT22;7462;53.530;9.414;2023-05-10T06:15:10;15.50;99.90
14741;DHT22;7462;53.530;9.414;2023-05-10T06:17:39;15.40;99.90
14741;DHT22;7462;53.530;9.414;2023-05-10T06:20:08;15.20;99.90
14741;DHT22;7462;53.530;9.414;2023-05-10T06:22:36;15.20;99.90
14741;DHT22;7462;53.530;9.414;2023-05-10T06:25:05;15.20;99.90
14741;DHT22;7462;53.530;9.414;2023-05-10T06:27:35;15.20;99.90
14741;DHT22;7462;53.530;9.414;2023-05-10T06:30:04;15.10;99.90
14741;DHT22;7462;53.530;9.414;2023-05-10T06:32:39;15.10;99.90
14741;DHT22;7462;53.530;9.414;2023-05-10T06:35:08;15.10;99.90
14741;DHT22;7462;53.530;9.414;2023-05-10T06:37:36;15.10;99.90
14741;DHT22;7462;53.530;9.414;2023-05-10T06:40:06;15.10;99.90
14741;DHT22;7462;53.530;9.414;2023-05-10T06:42:36;15.00;99.90
14741;DHT22;7462;53.530;9.414;2023-05-10T06:45:05;15.00;99.90
14741;DHT22;7462;53.530;9.414;2023-05-10T06:47:33;15.00;99.90
14741;DHT22;7462;53.530;9.414;2023-05-10T06:50:06;15.10;99.90
14741;DHT22;7462;53.530;9.414;2023-05-10T06:52:34;15.00;99.90
14741;DHT22;7462;53.530;9.414;2023-05-10T06:55:03;15.00;99.90
14741;DHT22;7462;53.530;9.414;2023-05-10T06:57:31;15.00;99.90
14741;DHT22;7462;53.530;9.414;2023-05-10T07:00:01;15.10;99.90
14741;DHT22;7462;53.530;9.414;2023-05-10T07:02:31;15.00;99.90
14741;DHT22;7462;53.530;9.414;2023-05-10T07:04:59;15.00;99.90
14741;DHT22;7462;53.530;9.414;2023-05-10T07:07:29;14.80;99.90
14741;DHT22;7462;53.530;9.414;2023-05-10T07:09:57;14.90;99.90
14741;DHT22;7462;53.530;9.414;2023-05-10T07:12:26;14.90;99.90
14741;DHT22;7462;53.530;9.414;2023-05-10T07:14:54;14.80;99.90
14741;DHT22;7462;53.530;9.414;2023-05-10T07:17:23;14.70;99.90
14741;DHT22;7462;53.530;9.414;2023-05-10T07:19:52;14.70;99.90
14741;DHT22;7462;53.530;9.414;2023-05-10T07:22:20;14.60;99.90
14741;DHT22;7462;53.530;9.414;2023-05-10T07:24:48;14.60;99.90
14741;DHT22;7462;53.530;9.414;2023-05-10T07:27:16;14.60;99.90
14741;DHT22;7462;53.530;9.414;2023-05-10T07:29:44;14.60;99.90
14741;DHT22;7462;53.530;9.414;2023-05-10T07:32:12;14.50;99.90
14741;DHT22;7462;53.530;9.414;2023-05-10T07:34:42;14.40;99.90
14741;DHT22;7462;53.530;9.414;2023-05-10T07:37:10;14.30;99.90
14741;DHT22;7462;53.530;9.414;2023-05-10T07:39:38;14.30;99.90
14741;DHT22;7462;53.530;9.414;2023-05-10T07:42:06;14.20;99.90
14741;DHT22;7462;53.530;9.414;2023-05-10T07:44:35;14.20;99.90
14741;DHT22;7462;53.530;9.414;2023-05-10T07:47:03;14.20;99.90
14741;DHT22;7462;53.530;9.414;2023-05-10T07:49:31;14.10;99.90
14741;DHT22;7462;53.530;9.414;2023-05-10T07:52:00;14.10;99.90
14741;DHT22;7462;53.530;9.414;2023-05-10T07:54:28;14.00;99.90
14741;DHT22;7462;53.530;9.414;2023-05-10T07:56:56;14.00;99.90
14741;DHT22;7462;53.530;9.414;2023-05-10T07:59:24;13.90;99.90
14741;DHT22;7462;53.530;9.414;2023-05-10T08:01:52;13.90;99.90
14741;DHT22;7462;53.530;9.414;2023-05-10T08:04:21;13.90;99.90
14741;DHT22;7462;53.530;9.414;2023-05-10T08:06:49;13.90;99.90
14741;DHT22;7462;53.530;9.414;2023-05-10T08:09:18;13.90;99.90
14741;DHT22;7462;53.530;9.414;2023-05-10T08:11:50;14.00;99.90
14741;DHT22;7462;53.530;9.414;2023-05-10T08:14:18;14.00;99.90
14741;DHT22;7462;53.530;9.414;2023-05-10T08:16:47;14.00;99.90
14741;DHT22;7462;53.530;9.414;2023-05-10T08:19:15;14.00;99.90
14741;DHT22;7462;53.530;9.414;2023-05-10T08:21:45;14.10;99.90
14741;DHT22;7462;53.530;9.414;2023-05-10T08:24:13;14.00;99.90
14741;DHT22;7462;53.530;9.414;2023-05-10T08:26:43;14.00;99.90
14741;DHT22;7462;53.530;9.414;2023-05-10T08:29:11;14.00;99.90
14741;DHT22;7462;53.530;9.414;2023-05-10T08:31:39;14.00;99.90
14741;DHT22;7462;53.530;9.414;2023-05-10T08:34:07;14.00;99.90
14741;DHT22;7462;53.530;9.414;2023-05-10T08:36:35;13.90;99.90
14741;DHT22;7462;53.530;9.414;2023-05-10T08:39:03;13.80;99.90
14741;DHT22;7462;53.530;9.414;2023-05-10T08:41:44;13.80;99.90
14741;DHT22;7462;53.530;9.414;2023-05-10T08:44:13;13.80;99.90
14741;DHT22;7462;53.530;9.414;2023-05-10T08:46:45;13.80;99.90
14741;DHT22;7462;53.530;9.414;2023-05-10T08:49:17;13.80;99.90
14741;DHT22;7462;53.530;9.414;2023-05-10T08:51:51;13.80;99.90
14741;DHT22;7462;53.530;9.414;2023-05-10T08:54:20;13.80;99.90
14741;DHT22;7462;53.530;9.414;2023-05-10T08:56:50;13.70;99.90
14741;DHT22;7462;53.530;9.414;2023-05-10T08:59:18;13.80;99.90
14741;DHT22;7462;53.530;9.414;2023-05-10T09:01:47;13.80;99.90
14741;DHT22;7462;53.530;9.414;2023-05-10T09:04:16;13.70;99.90
14741;DHT22;7462;53.530;9.414;2023-05-10T09:06:44;13.70;99.90
14741;DHT22;7462;53.530;9.414;2023-05-10T09:09:14;13.50;99.90
14741;DHT22;7462;53.530;9.414;2023-05-10T09:11:43;13.60;99.90
14741;DHT22;7462;53.530;9.414;2023-05-10T09:14:13;13.60;99.90
14741;DHT22;7462;53.530;9.414;2023-05-10T09:16:42;13.60;99.90
14741;DHT22;7462;53.530;9.414;2023-05-10T09:19:11;13.60;99.90
14741;DHT22;7462;53.530;9.414;2023-05-10T09:21:39;13.60;99.90
14741;DHT22;7462;53.530;9.414;2023-05-10T09:24:08;13.60;99.90
14741;DHT22;7462;53.530;9.414;2023-05-10T09:26:45;13.60;99.90
14741;DHT22;7462;53.530;9.414;2023-05-10T09:29:16;13.60;99.90
14741;DHT22;7462;53.530;9.414;2023-05-10T09:31:45;13.60;99.90
14741;DHT22;7462;53.530;9.414;2023-05-10T09:34:19;13.60;99.90
14741;DHT22;7462;53.530;9.414;2023-05-10T09:36:52;13.60;99.90
14741;DHT22;7462;53.530;9.414;2023-05-10T09:39:21;13.60;99.90
14741;DHT22;7462;53.530;9.414;2023-05-10T09:41:58;13.60;99.90
14741;DHT22;7462;53.530;9.414;2023-05-10T09:44:27;13.60;99.90
14741;DHT22;7462;53.530;9.414;2023-05-10T09:46:55;13.60;99.90
14741;DHT22;7462;53.530;9.414;2023-05-10T09:49:23;13.60;99.90
14741;DHT22;7462;53.530;9.414;2023-05-10T09:52:00;13.60;99.90
14741;DHT22;7462;53.530;9.414;2023-05-10T09:54:29;13.60;99.90
14741;DHT22;7462;53.530;9.414;2023-05-10T09:56:58;13.70;99.90
14741;DHT22;7462;53.530;9.414;2023-05-10T09:59:28;13.70;99.90
14741;DHT22;7462;53.530;9.414;2023-05-10T10:01:57;13.70;99.90
14741;DHT22;7462;53.530;9.414;2023-05-10T10:04:28;13.60;99.90
14741;DHT22;7462;53.530;9.414;2023-05-10T10:07:00;13.70;99.90
14741;DHT22;7462;53.530;9.414;2023-05-10T10:09:28;13.80;99.90
14741;DHT22;7462;53.530;9.414;2023-05-10T10:11:57;13.80;99.90
14741;DHT22;7462;53.530;9.414;2023-05-10T10:14:27;13.80;99.90
14741;DHT22;7462;53.530;9.414;2023-05-10T10:16:56;13.80;99.90
14741;DHT22;7462;53.530;9.414;2023-05-10T10:19:34;13.80;99.90
14741;DHT22;7462;53.530;9.414;2023-05-10T10:22:04;13.80;99.90
14741;DHT22;7462;53.530;9.414;2023-05-10T10:24:32;13.80;99.90
14741;DHT22;7462;53.530;9.414;2023-05-10T10:27:09;13.80;99.90
14741;DHT22;7462;53.530;9.414;2023-05-10T10:29:50;13.80;99.90
14741;DHT22;7462;53.530;9.414;2023-05-10T10:32:25;13.90;99.90
14741;DHT22;7462;53.530;9.414;2023-05-10T10:34:56;14.00;99.90
14741;DHT22;7462;53.530;9.414;2023-05-10T10:37:42;14.00;99.90
14741;DHT22;7462;53.530;9.414;2023-05-10T10:40:24;14.00;99.90
14741;DHT22;7462;53.530;9.414;2023-05-10T10:42:53;14.00;99.90
14741;DHT22;7462;53.530;9.414;2023-05-10T10:45:24;14.00;99.90
14741;DHT22;7462;53.530;9.414;2023-05-10T10:48:21;14.00;99.90
14741;DHT22;7462;53.530;9.414;2023-05-10T10:50:56;14.10;99.90
14741;DHT22;7462;53.530;9.414;2023-05-10T10:53:26;14.20;99.90
14741;DHT22;7462;53.530;9.414;2023-05-10T10:56:05;14.40;99.90
14741;DHT22;7462;53.530;9.414;2023-05-10T10:58:34;14.50;99.90
14741;DHT22;7462;53.530;9.414;2023-05-10T11:01:12;14.70;99.90
14741;DHT22;7462;53.530;9.414;2023-05-10T11:03:41;14.80;99.90
14741;DHT22;7462;53.530;9.414;2023-05-10T11:06:09;14.80;99.90
14741;DHT22;7462;53.530;9.414;2023-05-10T11:08:42;14.80;99.90
14741;DHT22;7462;53.530;9.414;2023-05-10T11:11:14;14.80;99.90
14741;DHT22;7462;53.530;9.414;2023-05-10T11:13:44;14.80;99.90
14741;DHT22;7462;53.530;9.414;2023-05-10T11:16:19;14.80;99.90
14741;DHT22;7462;53.530;9.414;2023-05-10T11:18:58;14.90;99.90
14741;DHT22;7462;53.530;9.414;2023-05-10T11:21:28;14.90;99.90
14741;DHT22;7462;53.530;9.414;2023-05-10T11:23:57;15.00;99.90
14741;DHT22;7462;53.530;9.414;2023-05-10T11:26:31;15.00;99.90
14741;DHT22;7462;53.530;9.414;2023-05-10T11:29:00;15.00;99.90
14741;DHT22;7462;53.530;9.414;2023-05-10T11:31:30;15.00;99.90
14741;DHT22;7462;53.530;9.414;2023-05-10T11:33:59;15.10;99.90
14741;DHT22;7462;53.530;9.414;2023-05-10T11:36:34;15.10;99.90
14741;DHT22;7462;53.530;9.414;2023-05-10T11:39:03;15.20;99.90
14741;DHT22;7462;53.530;9.414;2023-05-10T11:41:32;15.20;99.90
14741;DHT22;7462;53.530;9.414;2023-05-10T11:44:00;15.40;99.90
14741;DHT22;7462;53.530;9.414;2023-05-10T11:46:30;15.50;99.90
14741;DHT22;7462;53.530;9.414;2023-05-10T11:49:00;15.60;99.90
14741;DHT22;7462;53.530;9.414;2023-05-10T11:51:34;15.60;99.90
14741;DHT22;7462;53.530;9.414;2023-05-10T11:54:06;15.60;99.90
14741;DHT22;7462;53.530;9.414;2023-05-10T11:56:35;15.70;99.90
14741;DHT22;7462;53.530;9.414;2023-05-10T11:59:03;15.80;99.90
14741;DHT22;7462;53.530;9.414;2023-05-10T12:01:34;15.90;99.90
14741;DHT22;7462;53.530;9.414;2023-05-10T12:04:02;15.90;99.90
14741;DHT22;7462;53.530;9.414;2023-05-10T12:06:32;15.80;99.90
14741;DHT22;7462;53.530;9.414;2023-05-10T12:09:06;15.80;99.90
14741;DHT22;7462;53.530;9.414;2023-05-10T12:11:37;15.80;99.90
14741;DHT22;7462;53.530;9.414;2023-05-10T12:14:09;15.80;99.90
14741;DHT22;7462;53.530;9.414;2023-05-10T12:16:39;15.80;99.90
14741;DHT22;7462;53.530;9.414;2023-05-10T12:19:08;15.90;99.90
14741;DHT22;7462;53.530;9.414;2023-05-10T12:21:36;16.00;99.90
14741;DHT22;7462;53.530;9.414;2023-05-10T12:24:05;16.30;99.90
14741;DHT22;7462;53.530;9.414;2023-05-10T12:26:35;16.40;99.90
14741;DHT22;7462;53.530;9.414;2023-05-10T12:29:13;16.60;99.90
14741;DHT22;7462;53.530;9.414;2023-05-10T12:31:54;16.60;99.90
14741;DHT22;7462;53.530;9.414;2023-05-10T12:34:24;16.70;99.90
14741;DHT22;7462;53.530;9.414;2023-05-10T12:36:53;16.60;99.90
14741;DHT22;7462;53.530;9.414;2023-05-10T12:39:21;16.50;99.90
14741;DHT22;7462;53.530;9.414;2023-05-10T12:41:49;16.60;99.90
14741;DHT22;7462;53.530;9.414;2023-05-10T12:44:17;16.60;99.90
14741;DHT22;7462;53.530;9.414;2023-05-10T12:46:46;16.70;99.90
14741;DHT22;7462;53.530;9.414;2023-05-10T12:49:15;16.80;99.90
14741;DHT22;7462;53.530;9.414;2023-05-10T12:51:45;17.00;99.90
14741;DHT22;7462;53.530;9.414;2023-05-10T12:54:13;17.10;99.90
14741;DHT22;7462;53.530;9.414;2023-05-10T12:56:42;17.10;99.90
14741;DHT22;7462;53.530;9.414;2023-05-10T12:59:10;17.00;99.90
14741;DHT22;7462;53.530;9.414;2023-05-10T13:01:38;17.00;99.90
14741;DHT22;7462;53.530;9.414;2023-05-10T13:04:07;16.90;99.90
14741;DHT22;7462;53.530;9.414;2023-05-10T13:06:37;16.70;99.90
14741;DHT22;7462;53.530;9.414;2023-05-10T13:09:05;16.50;99.90
14741;DHT22;7462;53.530;9.414;2023-05-10T13:11:33;16.40;99.90
14741;DHT22;7462;53.530;9.414;2023-05-10T13:14:01;16.30;99.90
14741;DHT22;7462;53.530;9.414;2023-05-10T13:16:31;16.20;99.90
14741;DHT22;7462;53.530;9.414;2023-05-10T13:19:02;16.20;99.90
14741;DHT22;7462;53.530;9.414;2023-05-10T13:21:30;16.20;99.90
14741;DHT22;7462;53.530;9.414;2023-05-10T13:24:00;16.20;99.90
14741;DHT22;7462;53.530;9.414;2023-05-10T13:26:28;16.20;99.90
14741;DHT22;7462;53.530;9.414;2023-05-10T13:28:56;16.20;99.90
14741;DHT22;7462;53.530;9.414;2023-05-10T13:31:24;16.20;99.90
14741;DHT22;7462;53.530;9.414;2023-05-10T13:33:53;16.20;99.90
14741;DHT22;7462;53.530;9.414;2023-05-10T13:36:21;16.30;99.90
14741;DHT22;7462;53.530;9.414;2023-05-10T13:38:49;16.30;99.90
14741;DHT22;7462;53.530;9.414;2023-05-10T13:41:19;16.20;99.90
14741;DHT22;7462;53.530;9.414;2023-05-10T13:43:47;16.20;99.90
14741;DHT22;7462;53.530;9.414;2023-05-10T13:46:16;16.20;99.90
14741;DHT22;7462;53.530;9.414;2023-05-10T13:48:44;16.20;99.90
14741;DHT22;7462;53.530;9.414;2023-05-10T13:51:12;16.10;99.90
14741;DHT22;7462;53.530;9.414;2023-05-10T13:53:40;16.10;99.90
14741;DHT22;7462;53.530;9.414;2023-05-10T13:56:08;16.10;99.90
14741;DHT22;7462;53.530;9.414;2023-05-10T13:58:38;16.20;99.90
14741;DHT22;7462;53.530;9.414;2023-05-10T14:01:06;16.20;99.90
14741;DHT22;7462;53.530;9.414;2023-05-10T14:03:34;16.30;99.90
14741;DHT22;7462;53.530;9.414;2023-05-10T14:06:02;16.30;99.90
14741;DHT22;7462;53.530;9.414;2023-05-10T14:08:31;16.30;99.90
14741;DHT22;7462;53.530;9.414;2023-05-10T14:10:59;16.30;99.90
14741;DHT22;7462;53.530;9.414;2023-05-10T14:13:27;16.30;99.90
14741;DHT22;7462;53.530;9.414;2023-05-10T14:15:56;16.30;99.90
14741;DHT22;7462;53.530;9.414;2023-05-10T14:18:27;16.40;99.90
14741;DHT22;7462;53.530;9.414;2023-05-10T14:20:55;16.40;99.90
14741;DHT22;7462;53.530;9.414;2023-05-10T14:23:23;16.40;99.90
14741;DHT22;7462;53.530;9.414;2023-05-10T14:25:52;16.40;99.90
14741;DHT22;7462;53.530;9.414;2023-05-10T14:28:20;16.40;99.90
14741;DHT22;7462;53.530;9.414;2023-05-10T14:30:49;16.50;99.90
14741;DHT22;7462;53.530;9.414;2023-05-10T14:33:19;16.50;99.90
14741;DHT22;7462;53.530;9.414;2023-05-10T14:35:47;16.50;99.90
14741;DHT22;7462;53.530;9.414;2023-05-10T14:38:15;16.50;99.90
14741;DHT22;7462;53.530;9.414;2023-05-10T14:40:44;16.40;99.90
14741;DHT22;7462;53.530;9.414;2023-05-10T14:43:12;16.30;99.90
14741;DHT22;7462;53.530;9.414;2023-05-10T14:45:40;16.30;99.90
14741;DHT22;7462;53.530;9.414;2023-05-10T14:48:08;16.30;99.90
14741;DHT22;7462;53.530;9.414;2023-05-10T14:50:43;16.30;99.90
14741;DHT22;7462;53.530;9.414;2023-05-10T14:53:11;16.30;99.90
14741;DHT22;7462;53.530;9.414;2023-05-10T14:55:40;16.20;99.90
14741;DHT22;7462;53.530;9.414;2023-05-10T14:58:08;16.20;99.90
14741;DHT22;7462;53.530;9.414;2023-05-10T15:00:36;16.20;99.90
14741;DHT22;7462;53.530;9.414;2023-05-10T15:03:05;16.10;99.90
14741;DHT22;7462;53.530;9.414;2023-05-10T15:05:33;16.10;99.90
14741;DHT22;7462;53.530;9.414;2023-05-10T15:08:03;16.10;99.90
14741;DHT22;7462;53.530;9.414;2023-05-10T15:10:31;16.20;99.90
14741;DHT22;7462;53.530;9.414;2023-05-10T15:13:00;16.20;99.90
14741;DHT22;7462;53.530;9.414;2023-05-10T15:15:28;16.30;99.90
14741;DHT22;7462;53.530;9.414;2023-05-10T15:17:57;16.40;99.90
14741;DHT22;7462;53.530;9.414;2023-05-10T15:20:25;16.50;99.90
14741;DHT22;7462;53.530;9.414;2023-05-10T15:22:53;16.60;99.90
14741;DHT22;7462;53.530;9.414;2023-05-10T15:25:23;16.70;99.90
14741;DHT22;7462;53.530;9.414;2023-05-10T15:27:51;16.70;99.90
14741;DHT22;7462;53.530;9.414;2023-05-10T15:30:19;16.70;99.90
14741;DHT22;7462;53.530;9.414;2023-05-10T15:32:48;16.70;99.90
14741;DHT22;7462;53.530;9.414;2023-05-10T15:35:16;16.90;99.90
14741;DHT22;7462;53.530;9.414;2023-05-10T15:37:46;16.80;99.90
14741;DHT22;7462;53.530;9.414;2023-05-10T15:40:15;16.80;99.90
14741;DHT22;7462;53.530;9.414;2023-05-10T15:42:44;16.70;99.90
14741;DHT22;7462;53.530;9.414;2023-05-10T15:45:13;16.70;99.90
14741;DHT22;7462;53.530;9.414;2023-05-10T15:47:42;16.50;99.90
14741;DHT22;7462;53.530;9.414;2023-05-10T15:50:11;16.20;99.90
14741;DHT22;7462;53.530;9.414;2023-05-10T15:52:39;16.00;99.90
14741;DHT22;7462;53.530;9.414;2023-05-10T15:55:08;15.80;99.90
14741;DHT22;7462;53.530;9.414;2023-05-10T15:57:39;15.70;99.90
14741;DHT22;7462;53.530;9.414;2023-05-10T16:00:10;15.60;99.90
14741;DHT22;7462;53.530;9.414;2023-05-10T16:02:38;15.50;99.90
14741;DHT22;7462;53.530;9.414;2023-05-10T16:05:08;15.40;99.90
14741;DHT22;7462;53.530;9.414;2023-05-10T16:07:36;15.30;99.90